createdAt,value
2018-07-03T00:01:37.204Z,0.60
2018-07-03T00:04:06.992Z,0.80
2018-07-03T00:06:36.784Z,0.90
2018-07-03T00:09:08.677Z,0.90
2018-07-03T00:11:38.436Z,0.90
2018-07-03T00:14:08.156Z,1.40
2018-07-03T00:16:43.091Z,1.10
2018-07-03T00:19:12.832Z,0.90
2018-07-03T00:21:42.495Z,1.00
2018-07-03T00:24:12.261Z,1.03
2018-07-03T00:26:41.976Z,1.07
2018-07-03T00:29:11.671Z,0.90
2018-07-03T00:31:41.352Z,1.10
2018-07-03T00:34:11.025Z,1.30
2018-07-03T00:36:40.699Z,1.03
2018-07-03T00:39:10.594Z,1.07
2018-07-03T00:41:40.268Z,0.90
2018-07-03T00:44:09.965Z,1.00
2018-07-03T00:46:39.676Z,1.07
2018-07-03T00:49:09.364Z,0.80
2018-07-03T00:51:39.007Z,1.00
2018-07-03T00:54:08.714Z,0.80
2018-07-03T00:56:38.376Z,0.70
2018-07-03T00:59:08.131Z,0.90
2018-07-03T01:01:37.824Z,0.93
2018-07-03T01:04:07.501Z,0.73
2018-07-03T01:06:37.237Z,1.10
2018-07-03T01:09:08.633Z,1.00
2018-07-03T01:11:39.439Z,0.90
2018-07-03T01:14:09.211Z,0.90
2018-07-03T01:16:38.877Z,1.00
2018-07-03T01:19:08.625Z,0.97
2018-07-03T01:21:38.377Z,0.97
2018-07-03T01:24:08.103Z,0.83
2018-07-03T01:26:37.772Z,1.03
2018-07-03T01:29:07.447Z,1.23
2018-07-03T01:31:37.172Z,1.03
2018-07-03T01:34:06.848Z,0.87
2018-07-03T01:36:36.552Z,1.07
2018-07-03T01:39:07.192Z,1.17
2018-07-03T01:41:36.887Z,0.97
2018-07-03T01:44:06.593Z,1.20
2018-07-03T01:46:36.311Z,1.10
2018-07-03T01:49:06.001Z,1.00
2018-07-03T01:51:35.668Z,1.10
2018-07-03T01:54:05.433Z,1.10
2018-07-03T01:56:35.113Z,1.10
2018-07-03T01:59:04.811Z,1.00
2018-07-03T02:01:34.530Z,1.10
2018-07-03T02:04:04.224Z,0.97
2018-07-03T02:06:33.900Z,1.10
2018-07-03T02:09:03.840Z,0.90
2018-07-03T02:11:33.513Z,1.10
2018-07-03T02:14:03.249Z,1.00
2018-07-03T02:16:32.918Z,1.07
2018-07-03T02:19:02.581Z,1.10
2018-07-03T02:21:32.392Z,1.10
2018-07-03T02:24:02.055Z,0.97
2018-07-03T02:26:31.846Z,1.60
2018-07-03T02:29:01.532Z,0.90
2018-07-03T02:31:31.269Z,1.03
2018-07-03T02:34:00.972Z,0.90
2018-07-03T02:36:30.641Z,1.10
2018-07-03T02:39:00.377Z,1.00
2018-07-03T02:41:30.096Z,1.40
2018-07-03T02:43:59.759Z,1.10
2018-07-03T02:46:29.484Z,1.03
2018-07-03T02:48:59.169Z,1.00
2018-07-03T02:51:28.866Z,1.23
2018-07-03T02:53:58.776Z,1.07
2018-07-03T02:56:28.451Z,1.30
2018-07-03T02:58:58.175Z,1.13
2018-07-03T03:01:27.840Z,0.90
2018-07-03T03:03:57.531Z,1.00
2018-07-03T03:06:27.293Z,1.23
2018-07-03T03:08:56.991Z,1.40
2018-07-03T03:11:26.945Z,1.20
2018-07-03T03:13:57.362Z,1.10
2018-07-03T03:16:27.052Z,1.20
2018-07-03T03:18:56.725Z,1.07
2018-07-03T03:21:26.534Z,1.20
2018-07-03T03:23:56.207Z,1.07
2018-07-03T03:26:25.864Z,1.10
2018-07-03T03:28:55.604Z,1.10
2018-07-03T03:31:25.276Z,1.17
2018-07-03T03:33:54.968Z,1.00
2018-07-03T03:36:24.703Z,1.00
2018-07-03T03:38:54.384Z,1.20
2018-07-03T03:41:24.560Z,1.10
2018-07-03T03:43:54.440Z,1.53
2018-07-03T03:46:24.183Z,0.90
2018-07-03T03:48:53.831Z,1.00
2018-07-03T03:51:23.484Z,1.30
2018-07-03T03:53:53.279Z,1.10
2018-07-03T03:56:22.956Z,1.10
2018-07-03T03:58:52.632Z,0.97
2018-07-03T04:01:22.404Z,1.53
2018-07-03T04:03:52.089Z,1.37
2018-07-03T04:06:21.767Z,1.53
2018-07-03T04:08:51.468Z,1.20
2018-07-03T04:11:21.144Z,1.30
2018-07-03T04:13:50.814Z,1.27
2018-07-03T04:16:20.524Z,1.30
2018-07-03T04:18:50.212Z,1.30
2018-07-03T04:21:20.011Z,1.10
2018-07-03T04:23:49.728Z,1.43
2018-07-03T04:26:19.476Z,1.30
2018-07-03T04:28:49.197Z,1.10
2018-07-03T04:31:18.880Z,1.27
2018-07-03T04:33:48.569Z,1.20
2018-07-03T04:36:18.395Z,0.90
2018-07-03T04:38:48.065Z,0.90
2018-07-03T04:41:17.772Z,1.30
2018-07-03T04:43:47.459Z,1.30
2018-07-03T04:46:17.141Z,1.10
2018-07-03T04:48:46.809Z,1.27
2018-07-03T04:51:16.531Z,1.10
2018-07-03T04:53:46.195Z,1.30
2018-07-03T04:56:15.877Z,1.40
2018-07-03T04:58:45.595Z,1.10
2018-07-03T05:01:15.282Z,1.17
2018-07-03T05:03:44.973Z,1.30
2018-07-03T05:06:14.668Z,1.13
2018-07-03T05:08:44.343Z,1.20
2018-07-03T05:11:14.336Z,1.27
2018-07-03T05:13:44.036Z,1.20
2018-07-03T05:16:13.716Z,1.17
2018-07-03T05:18:43.467Z,1.10
2018-07-03T05:21:13.177Z,0.97
2018-07-03T05:23:42.874Z,1.13
2018-07-03T05:26:12.629Z,0.90
2018-07-03T05:28:42.319Z,1.30
2018-07-03T05:31:12.456Z,1.10
2018-07-03T05:33:42.180Z,1.20
2018-07-03T05:36:12.228Z,0.90
2018-07-03T05:38:41.912Z,1.10
2018-07-03T05:41:11.777Z,1.03
2018-07-03T05:43:41.496Z,1.10
2018-07-03T05:46:11.356Z,1.10
2018-07-03T05:48:41.097Z,1.10
2018-07-03T05:51:10.824Z,1.27
2018-07-03T05:53:40.582Z,1.20
2018-07-03T05:56:10.682Z,1.10
2018-07-03T05:58:40.537Z,1.00
2018-07-03T06:01:10.123Z,1.07
2018-07-03T06:03:39.821Z,1.10
2018-07-03T06:06:09.536Z,1.20
2018-07-03T06:08:39.208Z,1.07
2018-07-03T06:11:08.946Z,1.10
2018-07-03T06:13:38.879Z,0.80
2018-07-03T06:16:08.619Z,1.10
2018-07-03T06:18:38.399Z,1.13
2018-07-03T06:21:08.097Z,1.07
2018-07-03T06:23:37.814Z,1.00
2018-07-03T06:26:07.604Z,1.00
2018-07-03T06:28:37.371Z,1.30
2018-07-03T06:31:07.291Z,1.00
2018-07-03T06:33:36.972Z,0.97
2018-07-03T06:36:06.658Z,1.00
2018-07-03T06:38:36.409Z,1.17
2018-07-03T06:41:06.162Z,0.93
2018-07-03T06:43:35.957Z,0.70
2018-07-03T06:46:05.742Z,0.87
2018-07-03T06:48:35.513Z,1.00
2018-07-03T06:51:05.212Z,0.90
2018-07-03T06:53:34.941Z,1.10
2018-07-03T06:56:04.656Z,0.80
2018-07-03T06:58:34.438Z,0.73
2018-07-03T07:01:04.201Z,1.20
2018-07-03T07:03:33.931Z,1.00
2018-07-03T07:06:03.720Z,0.80
2018-07-03T07:08:33.539Z,0.80
2018-07-03T07:11:03.211Z,1.00
2018-07-03T07:13:32.947Z,0.80
2018-07-03T07:16:02.650Z,0.60
2018-07-03T07:18:32.440Z,0.53
2018-07-03T07:21:02.149Z,0.70
2018-07-03T07:23:31.933Z,0.60
2018-07-03T07:26:01.613Z,0.70
2018-07-03T07:28:31.392Z,0.70
2018-07-03T07:31:01.072Z,0.73
2018-07-03T07:33:30.888Z,0.60
2018-07-03T07:36:00.617Z,0.80
2018-07-03T07:38:30.316Z,0.70
2018-07-03T07:40:59.996Z,0.50
2018-07-03T07:43:29.692Z,0.67
2018-07-03T07:45:59.402Z,0.80
2018-07-03T07:48:29.076Z,0.70
2018-07-03T07:50:58.757Z,0.60
2018-07-03T07:53:28.484Z,0.67
2018-07-03T07:55:58.217Z,0.60
2018-07-03T07:58:28.288Z,0.50
2018-07-03T08:00:57.967Z,0.60
2018-07-03T08:03:27.702Z,0.50
2018-07-03T08:05:57.392Z,0.40
2018-07-03T08:08:27.333Z,0.40
2018-07-03T08:10:57.014Z,0.47
2018-07-03T08:13:26.712Z,0.40
2018-07-03T08:15:56.426Z,0.40
2018-07-03T08:18:26.108Z,0.60
2018-07-03T08:20:56.259Z,0.60
2018-07-03T08:23:25.977Z,0.50
2018-07-03T08:25:55.655Z,0.50
2018-07-03T08:28:25.364Z,0.53
2018-07-03T08:30:55.054Z,0.50
2018-07-03T08:33:24.723Z,0.47
2018-07-03T08:35:54.415Z,0.40
2018-07-03T08:38:24.112Z,0.50
2018-07-03T08:40:53.806Z,0.40
2018-07-03T08:43:23.547Z,0.65
2018-07-03T08:45:53.225Z,0.50
2018-07-03T08:48:23.831Z,0.33
2018-07-03T08:50:53.541Z,0.37
2018-07-03T08:53:23.294Z,0.30
2018-07-03T08:55:52.989Z,0.50
2018-07-03T08:58:22.717Z,0.85
2018-07-03T09:00:52.510Z,0.37
2018-07-03T09:03:22.357Z,0.45
2018-07-03T09:05:52.133Z,0.50
2018-07-03T09:08:21.804Z,0.72
2018-07-03T09:10:51.739Z,0.50
2018-07-03T09:13:21.409Z,0.45
2018-07-03T09:15:51.162Z,0.40
2018-07-03T09:18:20.839Z,0.40
2018-07-03T09:20:50.556Z,0.45
2018-07-03T09:23:20.276Z,0.80
2018-07-03T09:25:49.973Z,0.50
2018-07-03T09:28:19.646Z,0.60
2018-07-03T09:30:49.361Z,0.60
2018-07-03T09:33:19.041Z,0.55
2018-07-03T09:35:48.724Z,0.40
2018-07-03T09:38:18.498Z,0.40
2018-07-03T09:40:48.166Z,0.40
2018-07-03T09:43:17.821Z,0.50
2018-07-03T09:45:47.552Z,0.50
2018-07-03T09:48:17.265Z,0.40
2018-07-03T09:50:46.944Z,0.40
2018-07-03T09:53:16.660Z,0.30
2018-07-03T09:55:46.327Z,0.35
2018-07-03T09:58:16.006Z,0.55
2018-07-03T10:00:50.807Z,0.40
2018-07-03T10:03:20.468Z,0.40
2018-07-03T10:05:50.998Z,0.60
2018-07-03T10:08:20.644Z,0.30
2018-07-03T10:10:50.342Z,0.47
2018-07-03T10:13:20.019Z,0.40
2018-07-03T10:15:49.704Z,0.57
2018-07-03T10:18:19.436Z,0.40
2018-07-03T10:20:49.113Z,0.33
2018-07-03T10:23:18.806Z,0.40
2018-07-03T10:25:48.667Z,0.40
2018-07-03T10:28:18.501Z,0.30
2018-07-03T10:30:48.164Z,0.45
2018-07-03T10:33:17.835Z,0.70
2018-07-03T10:35:47.532Z,0.35
2018-07-03T10:38:17.180Z,0.50
2018-07-03T10:40:46.960Z,0.40
2018-07-03T10:43:16.672Z,0.40
2018-07-03T10:45:46.356Z,0.40
2018-07-03T10:48:16.016Z,0.40
2018-07-03T10:50:45.737Z,0.40
2018-07-03T10:53:15.425Z,0.50
2018-07-03T10:55:45.119Z,0.40
2018-07-03T10:58:14.779Z,0.40
2018-07-03T11:00:44.460Z,0.40
2018-07-03T11:03:14.166Z,0.40
2018-07-03T11:05:43.890Z,0.50
2018-07-03T11:08:13.612Z,0.40
2018-07-03T11:10:43.291Z,0.60
2018-07-03T11:13:12.980Z,0.57
2018-07-03T11:15:42.689Z,0.47
2018-07-03T11:18:12.336Z,0.50
2018-07-03T11:20:42.144Z,0.53
2018-07-03T11:23:11.841Z,0.62
2018-07-03T11:25:41.504Z,0.57
2018-07-03T11:28:11.285Z,0.35
2018-07-03T11:30:40.959Z,0.40
2018-07-03T11:33:10.616Z,0.40
2018-07-03T11:35:40.341Z,0.40
2018-07-03T11:38:10.006Z,0.50
2018-07-03T11:40:39.699Z,0.47
2018-07-03T11:43:09.448Z,0.60
2018-07-03T11:45:39.107Z,0.40
2018-07-03T11:48:08.788Z,0.50
2018-07-03T11:50:38.532Z,0.60
2018-07-03T11:53:08.260Z,0.40
2018-07-03T11:55:37.952Z,0.50
2018-07-03T11:58:07.686Z,0.50
2018-07-03T12:00:37.375Z,0.70
2018-07-03T12:03:07.100Z,0.50
2018-07-03T12:05:36.751Z,0.47
2018-07-03T12:08:06.509Z,0.40
2018-07-03T12:10:36.156Z,0.33
2018-07-03T12:13:05.838Z,0.50
2018-07-03T12:15:35.557Z,0.55
2018-07-03T12:18:05.295Z,0.50
2018-07-03T12:20:34.982Z,0.45
2018-07-03T12:23:04.724Z,0.80
2018-07-03T12:25:34.464Z,0.45
2018-07-03T12:28:04.252Z,0.30
2018-07-03T12:30:33.969Z,0.35
2018-07-03T12:33:03.681Z,0.40
2018-07-03T12:35:33.376Z,0.28
2018-07-03T12:38:03.028Z,0.47
2018-07-03T12:40:32.682Z,0.57
2018-07-03T12:43:02.401Z,0.47
2018-07-03T12:45:32.040Z,0.40
2018-07-03T12:48:01.684Z,0.60
2018-07-03T12:50:31.390Z,0.50
2018-07-03T12:53:01.109Z,0.35
2018-07-03T12:55:30.786Z,0.47
2018-07-03T12:58:00.477Z,0.40
2018-07-03T13:00:30.151Z,0.40
2018-07-03T13:02:59.882Z,0.40
2018-07-03T13:05:29.644Z,0.40
2018-07-03T13:07:59.359Z,0.50
2018-07-03T13:10:29.007Z,0.60
2018-07-03T13:12:58.767Z,0.60
2018-07-03T13:15:28.452Z,0.30
2018-07-03T13:17:58.296Z,0.42
2018-07-03T13:20:27.949Z,0.60
2018-07-03T13:22:57.621Z,0.70
2018-07-03T13:25:27.469Z,0.40
2018-07-03T13:27:57.238Z,0.35
2018-07-03T13:30:27.022Z,0.50
2018-07-03T13:32:56.732Z,0.40
2018-07-03T13:35:26.437Z,0.50
2018-07-03T13:37:56.212Z,0.37
2018-07-03T13:40:25.971Z,0.30
2018-07-03T13:42:55.892Z,0.55
2018-07-03T13:45:25.677Z,0.40
2018-07-03T13:47:55.457Z,0.55
2018-07-03T13:50:25.281Z,0.57
2018-07-03T13:52:54.924Z,0.70
2018-07-03T13:55:24.649Z,0.30
2018-07-03T13:57:54.533Z,0.50
2018-07-03T14:00:24.228Z,0.42
2018-07-03T14:02:53.917Z,0.53
2018-07-03T14:05:23.616Z,0.40
2018-07-03T14:07:53.265Z,0.40
2018-07-03T14:10:22.944Z,0.40
2018-07-03T14:12:52.624Z,0.40
2018-07-03T14:15:22.267Z,0.42
2018-07-03T14:17:51.905Z,0.70
2018-07-03T14:20:21.604Z,0.45
2018-07-03T14:22:51.289Z,0.40
2018-07-03T14:25:21.025Z,0.60
2018-07-03T14:27:50.668Z,0.40
2018-07-03T14:30:20.504Z,0.50
2018-07-03T14:32:50.157Z,0.50
2018-07-03T14:35:19.824Z,0.40
2018-07-03T14:37:49.533Z,0.60
2018-07-03T14:40:19.401Z,0.57
2018-07-03T14:42:49.112Z,0.60
2018-07-03T14:45:18.759Z,0.50
2018-07-03T14:47:48.505Z,0.53
2018-07-03T14:50:18.220Z,0.60
2018-07-03T14:52:48.026Z,0.50
2018-07-03T14:55:17.756Z,0.70
2018-07-03T14:57:47.481Z,0.60
2018-07-03T15:00:17.173Z,0.60
2018-07-03T15:02:46.837Z,0.40
2018-07-03T15:05:16.640Z,0.50
2018-07-03T15:07:46.316Z,0.50
2018-07-03T15:10:15.990Z,0.35
2018-07-03T15:12:45.800Z,0.70
2018-07-03T15:15:15.468Z,0.35
2018-07-03T15:17:45.168Z,0.60
2018-07-03T15:20:14.852Z,0.40
2018-07-03T15:22:44.476Z,0.60
2018-07-03T15:25:14.176Z,0.50
2018-07-03T15:27:43.843Z,0.50
2018-07-03T15:30:17.131Z,0.50
2018-07-03T15:32:46.806Z,0.60
2018-07-03T15:35:16.484Z,0.50
2018-07-03T15:37:46.627Z,0.57
2018-07-03T15:40:16.376Z,0.70
2018-07-03T15:42:46.060Z,0.57
2018-07-03T15:45:16.012Z,0.50
2018-07-03T15:47:45.687Z,0.50
2018-07-03T15:50:15.604Z,0.35
2018-07-03T15:52:45.265Z,0.42
2018-07-03T15:55:14.941Z,0.60
2018-07-03T15:57:44.631Z,0.62
2018-07-03T16:00:15.741Z,0.40
2018-07-03T16:04:01.928Z,0.30
2018-07-03T16:06:42.490Z,0.37
2018-07-03T16:09:13.709Z,0.70
2018-07-03T16:11:43.420Z,0.42
2018-07-03T16:14:13.591Z,0.60
2018-07-03T16:16:43.584Z,0.70
2018-07-03T16:19:18.323Z,0.40
2018-07-03T16:21:48.010Z,0.55
2018-07-03T16:24:17.651Z,0.65
2018-07-03T16:26:47.352Z,0.53
2018-07-03T16:29:17.465Z,0.50
2018-07-03T16:31:47.268Z,0.50
2018-07-03T16:34:17.079Z,0.40
2018-07-03T16:36:46.890Z,0.50
2018-07-03T16:39:16.600Z,0.60
2018-07-03T16:41:46.263Z,0.60
2018-07-03T16:44:15.940Z,0.60
2018-07-03T16:46:45.619Z,0.60
2018-07-03T16:49:15.475Z,0.60
2018-07-03T16:51:45.152Z,0.60
2018-07-03T16:54:14.944Z,0.50
2018-07-03T16:56:44.624Z,0.40
2018-07-03T16:59:14.321Z,0.50
2018-07-03T17:01:43.963Z,0.78
2018-07-03T17:04:13.578Z,0.78
2018-07-03T17:06:43.303Z,0.50
2018-07-03T17:09:13.275Z,0.53
2018-07-03T17:11:42.941Z,0.45
2018-07-03T17:14:12.669Z,0.72
2018-07-03T17:16:42.331Z,0.50
2018-07-03T17:19:17.107Z,0.62
2018-07-03T17:21:46.781Z,0.70
2018-07-03T17:24:16.460Z,0.90
2018-07-03T17:26:46.189Z,0.50
2018-07-03T17:29:15.856Z,0.57
2018-07-03T17:31:45.527Z,1.07
2018-07-03T17:34:15.224Z,0.78
2018-07-03T17:36:44.868Z,0.60
2018-07-03T17:39:15.709Z,0.50
2018-07-03T17:41:56.625Z,0.72
2018-07-03T17:44:39.044Z,0.72
2018-07-03T17:47:08.700Z,0.60
2018-07-03T17:49:38.391Z,0.80
2018-07-03T17:52:08.111Z,0.47
2018-07-03T17:54:37.766Z,0.60
2018-07-03T17:57:07.464Z,0.80
2018-07-03T17:59:37.152Z,0.47
2018-07-03T18:02:06.863Z,0.60
2018-07-03T18:04:36.569Z,0.53
2018-07-03T18:07:06.252Z,0.70
2018-07-03T18:09:35.909Z,0.70
2018-07-03T18:12:05.635Z,0.50
2018-07-03T18:14:35.302Z,0.60
2018-07-03T18:17:04.950Z,0.85
2018-07-03T18:19:39.775Z,0.60
2018-07-03T18:22:09.460Z,0.60
2018-07-03T18:24:39.169Z,0.65
2018-07-03T18:27:09.076Z,0.72
2018-07-03T18:29:38.577Z,1.00
2018-07-03T18:32:08.325Z,1.20
2018-07-03T18:34:38.031Z,0.98
2018-07-03T18:37:07.728Z,0.70
2018-07-03T18:39:37.446Z,0.70
2018-07-03T18:42:07.195Z,0.80
2018-07-03T18:44:36.859Z,0.68
2018-07-03T18:47:06.581Z,0.70
2018-07-03T18:49:36.264Z,0.60
2018-07-03T18:52:06.024Z,0.50
2018-07-03T18:54:35.716Z,0.90
2018-07-03T18:57:05.732Z,0.95
2018-07-03T18:59:36.157Z,0.90
2018-07-03T19:02:06.602Z,0.85
2018-07-03T19:04:36.383Z,1.20
2018-07-03T19:07:06.302Z,1.00
2018-07-03T19:09:35.976Z,1.10
2018-07-03T19:12:06.264Z,1.05
2018-07-03T19:14:35.936Z,0.80
2018-07-03T19:17:05.621Z,0.80
2018-07-03T19:19:35.328Z,0.82
2018-07-03T19:22:05.225Z,0.78
2018-07-03T19:24:35.016Z,0.80
2018-07-03T19:27:04.693Z,0.70
2018-07-03T19:29:34.699Z,0.70
2018-07-03T19:32:04.471Z,0.90
2018-07-03T19:34:34.144Z,0.90
2018-07-03T19:37:03.829Z,1.32
2018-07-03T19:39:33.657Z,1.30
2018-07-03T19:42:03.595Z,1.07
2018-07-03T19:44:33.373Z,0.70
2018-07-03T19:47:03.041Z,1.00
2018-07-03T19:49:32.764Z,0.93
2018-07-03T19:52:02.468Z,0.70
2018-07-03T19:54:32.116Z,0.90
2018-07-03T19:57:01.805Z,1.02
2018-07-03T19:59:31.523Z,0.90
2018-07-03T20:02:01.204Z,1.00
2018-07-03T20:04:30.852Z,0.90
2018-07-03T20:07:00.531Z,0.98
2018-07-03T20:09:30.184Z,0.90
2018-07-03T20:11:59.805Z,1.80
2018-07-03T20:14:29.529Z,1.20
2018-07-03T20:16:59.221Z,1.22
2018-07-03T20:19:28.868Z,0.90
2018-07-03T20:21:58.608Z,1.00
2018-07-03T20:24:28.224Z,0.80
2018-07-03T20:26:57.856Z,1.07
2018-07-03T20:29:28.396Z,0.80
2018-07-03T20:31:58.057Z,1.10
2018-07-03T20:34:27.728Z,0.90
2018-07-03T20:36:57.452Z,0.80
2018-07-03T20:39:27.115Z,0.80
2018-07-03T20:41:56.780Z,0.90
2018-07-03T20:44:26.455Z,0.90
2018-07-03T20:46:56.085Z,1.07
2018-07-03T20:49:25.777Z,0.97
2018-07-03T20:51:55.492Z,1.00
2018-07-03T20:54:25.180Z,0.93
2018-07-03T20:56:54.829Z,1.00
2018-07-03T20:59:24.521Z,0.90
2018-07-03T21:01:54.193Z,1.30
2018-07-03T21:04:23.905Z,1.43
2018-07-03T21:06:53.649Z,1.57
2018-07-03T21:09:23.296Z,1.30
2018-07-03T21:11:52.995Z,1.20
2018-07-03T21:14:22.675Z,1.50
2018-07-03T21:16:52.383Z,1.40
2018-07-03T21:19:24.467Z,1.40
2018-07-03T21:21:54.845Z,1.30
2018-07-03T21:24:24.582Z,1.40
2018-07-03T21:26:54.211Z,1.40
2018-07-03T21:29:23.852Z,1.60
2018-07-03T21:31:53.618Z,1.33
2018-07-03T21:34:23.229Z,1.50
2018-07-03T21:36:52.900Z,1.33
2018-07-03T21:39:22.617Z,1.30
2018-07-03T21:41:52.608Z,1.10
2018-07-03T21:44:22.365Z,1.40
2018-07-03T21:46:52.059Z,1.30
2018-07-03T21:49:21.731Z,1.33
2018-07-03T21:51:51.413Z,1.10
2018-07-03T21:54:21.072Z,1.30
2018-07-03T21:56:50.712Z,1.40
2018-07-03T21:59:20.424Z,1.07
2018-07-03T22:01:50.096Z,1.40
2018-07-03T22:04:19.725Z,1.13
2018-07-03T22:06:49.424Z,1.60
2018-07-03T22:09:19.196Z,1.10
2018-07-03T22:11:48.847Z,1.50
2018-07-03T22:14:18.540Z,1.40
2018-07-03T22:16:48.183Z,1.40
2018-07-03T22:19:17.825Z,1.30
2018-07-03T22:21:47.550Z,1.50
2018-07-03T22:24:17.175Z,1.43
2018-07-03T22:26:46.851Z,1.20
2018-07-03T22:29:16.788Z,1.50
2018-07-03T22:31:46.429Z,1.30
2018-07-03T22:34:16.120Z,1.50
2018-07-03T22:36:45.753Z,1.60
2018-07-03T22:39:15.420Z,1.47
2018-07-03T22:41:45.152Z,1.57
2018-07-03T22:44:17.772Z,1.30
2018-07-03T22:46:47.575Z,1.53
2018-07-03T22:49:17.208Z,1.37
2018-07-03T22:51:46.852Z,1.63
2018-07-03T22:54:16.519Z,1.30
2018-07-03T22:56:46.159Z,1.87
2018-07-03T22:59:15.804Z,1.63
2018-07-03T23:01:45.480Z,1.80
2018-07-03T23:04:15.117Z,1.60
2018-07-03T23:06:44.779Z,1.60
2018-07-03T23:09:14.467Z,1.50
2018-07-03T23:11:44.104Z,2.00
2018-07-03T23:14:13.740Z,1.87
2018-07-03T23:16:43.401Z,1.70
2018-07-03T23:19:13.068Z,1.70
2018-07-03T23:21:42.705Z,1.70
2018-07-03T23:24:12.589Z,1.60
2018-07-03T23:26:42.254Z,1.70
2018-07-03T23:29:11.931Z,1.77
2018-07-03T23:31:41.606Z,1.90
2018-07-03T23:34:11.265Z,1.47
2018-07-03T23:36:40.900Z,1.63
2018-07-03T23:39:11.268Z,1.70
2018-07-03T23:41:40.924Z,1.60
2018-07-03T23:44:10.560Z,1.50
2018-07-03T23:46:51.303Z,1.47
2018-07-03T23:49:31.856Z,1.80
2018-07-03T23:52:12.631Z,1.60
2018-07-03T23:54:53.435Z,1.90
2018-07-03T23:57:34.152Z,1.80
